Alleghany, Virginia
Current Conditions -  °F | °C
As of 11:15 PM on Friday 24 Oct 2014 (Local Time) from KHSP Reporting Station
Clear Clear  
Wind Chill: 37°   Ceiling: Unl
Heat Index: 44°   Visibility: 10mi
Dew Point: 33°   Wind: 12mph
Humidity: 67%   Direction: 290°WNW
Pressure: 30.03"   Gusts: NA
Location:  37.7731°N, 80.0632°W
Report Text: KHSP 250315Z AUTO 29010KT 10SM CLR 06/01 A3003 RMK AO2 T00640006
Loading
Personal Weather Stations






























Interactive Weather Map
Tropical Storm Tracking
New forecast layout! Learn more

10-Day Weather Forecast

Advertisements
Track Severe Weather on mobile